Artic, Indiana
Current Conditions -  °F | °C
As of 4:35 AM on Monday 24 Nov 2014 (Local Time) from KGWB Reporting Station
Drizzle Drizzle  
Wind Chill: 54°   Ceiling: 800
Heat Index: 54°   Visibility: 4mi
Dew Point: 50°   Wind: 12mph
Humidity: 88%   Direction: 220°SW
Pressure: 29.17"   Gusts: 17mph
Location:  41.4294°N, 84.8751°W
Report Text: KGWB 240935Z AUTO 22010G15KT 4SM DZ OVC008 12/10 A2917 RMK AO2 P0001
Loading
Personal Weather Stations






























Interactive Weather Map New forecast layout! Learn more

10-Day Weather Forecast

Advertisements
Track Severe Weather on mobile